Main page
METAR-TAF:

METAR-TAF

Airports :

Madrid–Torrejón Airport

Madrid-Torrejón, Spain

latitude: 40-29N, longitude: 003-27W, elevation: 607 m

Current weather observation

The report was made 17 minutes ago, at 18:00 UTC
Wind 4 kt from the North/Northeast, varying between North and East
Temperature 17°C
Humidity 88%
Pressure 1021 hPa
Visibility 10 km or more
Scattered clouds at a height of 6000 ft

METAR: LETO 201800Z 02004KT 350V080 9999 SCT060 17/15 Q1021 NOSIG

Time: 20:17 (18:17 UTC)

Forecast

The report was made 1 hour and 17 minutes ago, at 17:00 UTC
Forecast valid from 20 at 18 UTC to 21 at 18 UTC
Wind 8 kt from the Northeast
Visibility 10 km or more
Few clouds at a height of 4000 ft
Scattered clouds at a height of 8000 ft
Probability 30% :
Temporary
from 20 at 18 UTC to 20 at 19 UTC
Scattered clouds at a height of 4000 ft, Cumulonimbus.
rain showers, thunderstorm

TAF: LETO 201700Z 2018/2118 04008KT 9999 FEW040 SCT080 TX21/2115Z TN12/2106Z PROB30 TEMPO 2018/2019 SHRA TS SCT040CB

Weather observations and forecasts of more than 4000 airports (METAR and TAF reports).

The available stations are represented by yellow and red dots on the map.

Hover mouse over dot to see the name of the station.

Then click to see weather observations and forecasts.

To change the map : click on the green buttons with a black cross to zoom in, on the green button with a dash to zoom out, or on the green arrows for adjacent maps.


METAR-TAF: